sensor_id;sensor_type;location;lat;lon;timestamp;P1;durP1;ratioP1;P2;durP2;ratioP2
55346;SDS011;41218;55.700;38.270;2023-12-20T00:03:25;2.55;;;1.60;;
55346;SDS011;41218;55.700;38.270;2023-12-20T00:08:26;3.20;;;1.80;;
55346;SDS011;41218;55.700;38.270;2023-12-20T00:13:28;2.45;;;1.73;;
55346;SDS011;41218;55.700;38.270;2023-12-20T00:18:32;3.40;;;1.60;;
55346;SDS011;41218;55.700;38.270;2023-12-20T00:23:45;2.95;;;1.52;;
55346;SDS011;41218;55.700;38.270;2023-12-20T00:28:49;4.63;;;1.73;;
55346;SDS011;41218;55.700;38.270;2023-12-20T00:33:49;3.00;;;1.60;;
55346;SDS011;41218;55.700;38.270;2023-12-20T00:38:55;3.53;;;1.90;;
55346;SDS011;41218;55.700;38.270;2023-12-20T00:43:55;2.63;;;1.38;;
55346;SDS011;41218;55.700;38.270;2023-12-20T00:48:56;3.15;;;1.60;;
55346;SDS011;41218;55.700;38.270;2023-12-20T00:54:00;2.67;;;1.30;;
55346;SDS011;41218;55.700;38.270;2023-12-20T00:59:01;3.47;;;1.60;;
55346;SDS011;41218;55.700;38.270;2023-12-20T01:04:04;2.80;;;1.50;;
55346;SDS011;41218;55.700;38.270;2023-12-20T01:09:04;3.65;;;1.77;;
55346;SDS011;41218;55.700;38.270;2023-12-20T01:14:05;3.25;;;1.73;;
55346;SDS011;41218;55.700;38.270;2023-12-20T01:19:09;3.95;;;1.77;;
55346;SDS011;41218;55.700;38.270;2023-12-20T01:24:11;3.22;;;1.45;;
55346;SDS011;41218;55.700;38.270;2023-12-20T01:29:11;4.07;;;1.90;;
55346;SDS011;41218;55.700;38.270;2023-12-20T01:34:14;4.10;;;1.42;;
55346;SDS011;41218;55.700;38.270;2023-12-20T01:39:18;3.85;;;1.83;;
55346;SDS011;41218;55.700;38.270;2023-12-20T01:44:19;3.05;;;1.80;;
55346;SDS011;41218;55.700;38.270;2023-12-20T01:49:22;2.90;;;1.58;;
55346;SDS011;41218;55.700;38.270;2023-12-20T01:54:23;5.60;;;1.98;;
55346;SDS011;41218;55.700;38.270;2023-12-20T01:59:24;3.13;;;1.63;;
55346;SDS011;41218;55.700;38.270;2023-12-20T02:04:26;3.70;;;1.63;;
55346;SDS011;41218;55.700;38.270;2023-12-20T02:09:27;4.05;;;1.92;;
55346;SDS011;41218;55.700;38.270;2023-12-20T02:19:29;4.30;;;2.03;;
55346;SDS011;41218;55.700;38.270;2023-12-20T02:24:41;4.88;;;2.03;;
55346;SDS011;41218;55.700;38.270;2023-12-20T02:29:42;4.40;;;2.05;;
55346;SDS011;41218;55.700;38.270;2023-12-20T02:34:49;4.97;;;2.63;;
55346;SDS011;41218;55.700;38.270;2023-12-20T02:39:50;5.50;;;2.75;;
55346;SDS011;41218;55.700;38.270;2023-12-20T02:44:53;6.20;;;2.42;;
55346;SDS011;41218;55.700;38.270;2023-12-20T02:49:56;3.72;;;2.03;;
55346;SDS011;41218;55.700;38.270;2023-12-20T02:54:59;4.53;;;1.75;;
55346;SDS011;41218;55.700;38.270;2023-12-20T03:00:00;5.05;;;2.35;;
55346;SDS011;41218;55.700;38.270;2023-12-20T03:05:09;6.07;;;2.30;;
55346;SDS011;41218;55.700;38.270;2023-12-20T03:10:12;2.92;;;1.77;;
55346;SDS011;41218;55.700;38.270;2023-12-20T03:15:15;3.50;;;1.92;;
55346;SDS011;41218;55.700;38.270;2023-12-20T03:20:18;3.03;;;1.73;;
55346;SDS011;41218;55.700;38.270;2023-12-20T03:25:24;3.80;;;1.70;;
55346;SDS011;41218;55.700;38.270;2023-12-20T03:30:27;2.67;;;1.45;;
55346;SDS011;41218;55.700;38.270;2023-12-20T03:35:31;2.30;;;1.40;;
55346;SDS011;41218;55.700;38.270;2023-12-20T03:40:32;2.95;;;1.50;;
55346;SDS011;41218;55.700;38.270;2023-12-20T03:45:35;3.80;;;1.67;;
55346;SDS011;41218;55.700;38.270;2023-12-20T03:50:38;4.03;;;1.93;;
55346;SDS011;41218;55.700;38.270;2023-12-20T03:55:39;4.60;;;1.60;;
55346;SDS011;41218;55.700;38.270;2023-12-20T04:00:40;4.82;;;1.90;;
55346;SDS011;41218;55.700;38.270;2023-12-20T04:05:44;6.57;;;2.20;;
55346;SDS011;41218;55.700;38.270;2023-12-20T04:10:50;5.70;;;2.35;;
55346;SDS011;41218;55.700;38.270;2023-12-20T04:15:51;4.40;;;2.05;;
55346;SDS011;41218;55.700;38.270;2023-12-20T04:20:54;5.07;;;2.03;;
55346;SDS011;41218;55.700;38.270;2023-12-20T04:25:58;6.22;;;2.58;;
55346;SDS011;41218;55.700;38.270;2023-12-20T04:30:59;7.20;;;2.70;;
55346;SDS011;41218;55.700;38.270;2023-12-20T04:35:59;7.07;;;3.10;;
55346;SDS011;41218;55.700;38.270;2023-12-20T04:41:05;5.68;;;2.55;;
55346;SDS011;41218;55.700;38.270;2023-12-20T04:46:21;5.93;;;2.53;;
55346;SDS011;41218;55.700;38.270;2023-12-20T04:51:26;6.53;;;3.00;;
55346;SDS011;41218;55.700;38.270;2023-12-20T04:56:27;6.18;;;2.90;;
55346;SDS011;41218;55.700;38.270;2023-12-20T05:01:28;7.93;;;3.20;;
55346;SDS011;41218;55.700;38.270;2023-12-20T05:06:31;9.88;;;3.70;;
55346;SDS011;41218;55.700;38.270;2023-12-20T05:11:34;10.57;;;3.50;;
55346;SDS011;41218;55.700;38.270;2023-12-20T05:16:35;7.35;;;3.50;;
55346;SDS011;41218;55.700;38.270;2023-12-20T05:21:36;6.25;;;3.15;;
55346;SDS011;41218;55.700;38.270;2023-12-20T05:26:37;6.27;;;2.93;;
55346;SDS011;41218;55.700;38.270;2023-12-20T05:31:37;8.03;;;3.10;;
55346;SDS011;41218;55.700;38.270;2023-12-20T05:36:38;7.95;;;3.60;;
55346;SDS011;41218;55.700;38.270;2023-12-20T05:41:41;6.97;;;3.42;;
55346;SDS011;41218;55.700;38.270;2023-12-20T05:46:42;7.45;;;3.70;;
55346;SDS011;41218;55.700;38.270;2023-12-20T05:51:46;6.93;;;3.35;;
55346;SDS011;41218;55.700;38.270;2023-12-20T05:56:49;6.90;;;2.95;;
55346;SDS011;41218;55.700;38.270;2023-12-20T06:01:53;6.97;;;3.03;;
55346;SDS011;41218;55.700;38.270;2023-12-20T06:06:56;7.73;;;2.77;;
55346;SDS011;41218;55.700;38.270;2023-12-20T06:11:58;4.22;;;2.30;;
55346;SDS011;41218;55.700;38.270;2023-12-20T06:17:02;6.65;;;2.72;;
55346;SDS011;41218;55.700;38.270;2023-12-20T06:22:04;6.05;;;2.60;;
55346;SDS011;41218;55.700;38.270;2023-12-20T06:27:07;7.05;;;2.65;;
55346;SDS011;41218;55.700;38.270;2023-12-20T06:32:07;5.85;;;2.58;;
55346;SDS011;41218;55.700;38.270;2023-12-20T06:37:10;6.20;;;3.22;;
55346;SDS011;41218;55.700;38.270;2023-12-20T06:42:13;6.90;;;2.95;;
55346;SDS011;41218;55.700;38.270;2023-12-20T06:47:14;6.95;;;3.03;;
55346;SDS011;41218;55.700;38.270;2023-12-20T06:52:15;7.25;;;3.13;;
55346;SDS011;41218;55.700;38.270;2023-12-20T06:57:15;7.17;;;2.90;;
55346;SDS011;41218;55.700;38.270;2023-12-20T07:02:16;6.82;;;3.10;;
55346;SDS011;41218;55.700;38.270;2023-12-20T07:07:17;7.07;;;3.20;;
55346;SDS011;41218;55.700;38.270;2023-12-20T07:12:18;6.85;;;3.10;;
55346;SDS011;41218;55.700;38.270;2023-12-20T07:17:19;6.63;;;2.72;;
55346;SDS011;41218;55.700;38.270;2023-12-20T07:22:21;7.20;;;3.25;;
55346;SDS011;41218;55.700;38.270;2023-12-20T07:27:22;6.00;;;2.63;;
55346;SDS011;41218;55.700;38.270;2023-12-20T07:32:23;7.90;;;2.90;;
55346;SDS011;41218;55.700;38.270;2023-12-20T07:37:24;4.85;;;2.58;;
55346;SDS011;41218;55.700;38.270;2023-12-20T07:42:24;7.87;;;3.03;;
55346;SDS011;41218;55.700;38.270;2023-12-20T07:47:25;7.63;;;2.67;;
55346;SDS011;41218;55.700;38.270;2023-12-20T07:52:27;6.97;;;2.97;;
55346;SDS011;41218;55.700;38.270;2023-12-20T07:57:29;5.03;;;2.72;;
55346;SDS011;41218;55.700;38.270;2023-12-20T08:02:30;7.45;;;2.72;;
55346;SDS011;41218;55.700;38.270;2023-12-20T08:07:34;5.93;;;2.80;;
55346;SDS011;41218;55.700;38.270;2023-12-20T08:12:35;5.77;;;3.03;;
55346;SDS011;41218;55.700;38.270;2023-12-20T08:17:35;6.80;;;3.25;;
55346;SDS011;41218;55.700;38.270;2023-12-20T08:22:42;6.15;;;3.05;;
55346;SDS011;41218;55.700;38.270;2023-12-20T08:27:45;4.85;;;2.30;;
55346;SDS011;41218;55.700;38.270;2023-12-20T08:32:46;7.03;;;2.80;;
55346;SDS011;41218;55.700;38.270;2023-12-20T08:37:52;4.82;;;2.63;;
55346;SDS011;41218;55.700;38.270;2023-12-20T08:42:53;5.57;;;2.60;;
55346;SDS011;41218;55.700;38.270;2023-12-20T08:47:54;4.90;;;2.42;;
55346;SDS011;41218;55.700;38.270;2023-12-20T08:52:58;7.25;;;2.65;;
55346;SDS011;41218;55.700;38.270;2023-12-20T08:58:02;5.50;;;2.70;;
55346;SDS011;41218;55.700;38.270;2023-12-20T09:03:02;5.57;;;2.58;;
55346;SDS011;41218;55.700;38.270;2023-12-20T09:08:03;4.88;;;2.78;;
55346;SDS011;41218;55.700;38.270;2023-12-20T09:13:08;3.67;;;2.17;;
55346;SDS011;41218;55.700;38.270;2023-12-20T09:18:09;3.88;;;2.30;;
55346;SDS011;41218;55.700;38.270;2023-12-20T09:23:13;4.10;;;2.40;;
55346;SDS011;41218;55.700;38.270;2023-12-20T09:28:14;4.80;;;2.33;;
55346;SDS011;41218;55.700;38.270;2023-12-20T09:33:14;5.10;;;2.13;;
55346;SDS011;41218;55.700;38.270;2023-12-20T09:43:20;5.78;;;2.55;;
55346;SDS011;41218;55.700;38.270;2023-12-20T09:48:24;4.25;;;2.35;;
55346;SDS011;41218;55.700;38.270;2023-12-20T09:53:38;6.07;;;3.10;;
55346;SDS011;41218;55.700;38.270;2023-12-20T09:58:41;5.88;;;3.22;;
55346;SDS011;41218;55.700;38.270;2023-12-20T10:03:42;5.63;;;2.85;;
55346;SDS011;41218;55.700;38.270;2023-12-20T10:08:43;6.95;;;3.00;;
55346;SDS011;41218;55.700;38.270;2023-12-20T10:13:44;5.70;;;2.90;;
55346;SDS011;41218;55.700;38.270;2023-12-20T10:18:47;5.65;;;2.95;;
55346;SDS011;41218;55.700;38.270;2023-12-20T10:23:51;6.10;;;3.17;;
55346;SDS011;41218;55.700;38.270;2023-12-20T10:28:53;5.95;;;3.03;;
55346;SDS011;41218;55.700;38.270;2023-12-20T10:33:56;7.13;;;3.60;;
55346;SDS011;41218;55.700;38.270;2023-12-20T10:39:01;10.20;;;3.40;;
55346;SDS011;41218;55.700;38.270;2023-12-20T10:44:03;5.97;;;3.35;;
55346;SDS011;41218;55.700;38.270;2023-12-20T10:49:09;6.53;;;3.30;;
55346;SDS011;41218;55.700;38.270;2023-12-20T10:54:13;5.63;;;3.13;;
55346;SDS011;41218;55.700;38.270;2023-12-20T10:59:15;6.32;;;2.65;;
55346;SDS011;41218;55.700;38.270;2023-12-20T11:04:24;7.38;;;3.38;;
55346;SDS011;41218;55.700;38.270;2023-12-20T11:09:31;7.05;;;2.90;;
55346;SDS011;41218;55.700;38.270;2023-12-20T11:14:42;4.53;;;2.60;;
55346;SDS011;41218;55.700;38.270;2023-12-20T11:25:05;4.43;;;2.40;;
55346;SDS011;41218;55.700;38.270;2023-12-20T11:30:11;5.47;;;3.00;;
55346;SDS011;41218;55.700;38.270;2023-12-20T11:40:15;5.90;;;2.73;;
55346;SDS011;41218;55.700;38.270;2023-12-20T11:45:23;4.82;;;2.53;;
55346;SDS011;41218;55.700;38.270;2023-12-20T11:50:26;5.72;;;2.83;;
55346;SDS011;41218;55.700;38.270;2023-12-20T11:55:29;5.35;;;2.45;;
55346;SDS011;41218;55.700;38.270;2023-12-20T12:00:34;4.38;;;2.35;;
55346;SDS011;41218;55.700;38.270;2023-12-20T12:05:38;4.70;;;2.58;;
55346;SDS011;41218;55.700;38.270;2023-12-20T12:10:38;5.30;;;2.70;;
55346;SDS011;41218;55.700;38.270;2023-12-20T12:15:39;6.20;;;2.83;;
55346;SDS011;41218;55.700;38.270;2023-12-20T12:20:42;7.03;;;3.20;;
55346;SDS011;41218;55.700;38.270;2023-12-20T12:25:46;5.68;;;3.03;;
55346;SDS011;41218;55.700;38.270;2023-12-20T12:30:57;6.55;;;2.97;;
55346;SDS011;41218;55.700;38.270;2023-12-20T12:36:00;5.57;;;2.63;;
55346;SDS011;41218;55.700;38.270;2023-12-20T12:41:01;6.28;;;2.80;;
55346;SDS011;41218;55.700;38.270;2023-12-20T12:46:02;5.25;;;2.80;;
55346;SDS011;41218;55.700;38.270;2023-12-20T12:51:06;6.35;;;2.80;;
55346;SDS011;41218;55.700;38.270;2023-12-20T12:56:11;3.95;;;2.28;;
55346;SDS011;41218;55.700;38.270;2023-12-20T13:01:13;5.38;;;2.50;;
55346;SDS011;41218;55.700;38.270;2023-12-20T13:06:16;4.60;;;2.42;;
55346;SDS011;41218;55.700;38.270;2023-12-20T13:11:18;4.55;;;2.17;;
55346;SDS011;41218;55.700;38.270;2023-12-20T13:16:27;3.50;;;2.30;;
55346;SDS011;41218;55.700;38.270;2023-12-20T13:21:42;3.67;;;2.10;;
55346;SDS011;41218;55.700;38.270;2023-12-20T13:32:22;4.20;;;2.22;;
55346;SDS011;41218;55.700;38.270;2023-12-20T13:37:32;4.40;;;2.45;;
55346;SDS011;41218;55.700;38.270;2023-12-20T13:42:35;5.57;;;2.50;;
55346;SDS011;41218;55.700;38.270;2023-12-20T13:47:40;6.70;;;2.42;;
55346;SDS011;41218;55.700;38.270;2023-12-20T13:52:48;5.13;;;2.58;;
55346;SDS011;41218;55.700;38.270;2023-12-20T13:57:53;5.18;;;2.63;;
55346;SDS011;41218;55.700;38.270;2023-12-20T14:02:54;4.90;;;3.03;;
55346;SDS011;41218;55.700;38.270;2023-12-20T14:07:54;5.88;;;2.88;;
55346;SDS011;41218;55.700;38.270;2023-12-20T14:13:00;5.28;;;3.05;;
55346;SDS011;41218;55.700;38.270;2023-12-20T14:18:04;6.57;;;2.60;;
55346;SDS011;41218;55.700;38.270;2023-12-20T14:23:10;4.30;;;2.88;;
55346;SDS011;41218;55.700;38.270;2023-12-20T14:28:14;5.97;;;2.90;;
55346;SDS011;41218;55.700;38.270;2023-12-20T14:33:22;5.50;;;3.10;;
55346;SDS011;41218;55.700;38.270;2023-12-20T14:38:26;4.97;;;2.70;;
55346;SDS011;41218;55.700;38.270;2023-12-20T14:43:32;5.25;;;2.33;;
55346;SDS011;41218;55.700;38.270;2023-12-20T14:48:32;4.57;;;2.10;;
55346;SDS011;41218;55.700;38.270;2023-12-20T14:53:33;4.40;;;2.45;;
55346;SDS011;41218;55.700;38.270;2023-12-20T14:58:37;4.15;;;2.30;;
55346;SDS011;41218;55.700;38.270;2023-12-20T15:03:44;7.53;;;2.65;;
55346;SDS011;41218;55.700;38.270;2023-12-20T15:08:47;4.93;;;2.40;;
55346;SDS011;41218;55.700;38.270;2023-12-20T15:13:50;4.88;;;2.72;;
55346;SDS011;41218;55.700;38.270;2023-12-20T15:18:59;5.30;;;2.60;;
55346;SDS011;41218;55.700;38.270;2023-12-20T15:24:03;4.60;;;2.35;;
55346;SDS011;41218;55.700;38.270;2023-12-20T15:29:20;6.28;;;2.15;;
55346;SDS011;41218;55.700;38.270;2023-12-20T15:34:23;4.82;;;2.63;;
55346;SDS011;41218;55.700;38.270;2023-12-20T15:39:27;8.23;;;2.47;;
55346;SDS011;41218;55.700;38.270;2023-12-20T15:44:27;4.15;;;2.40;;
55346;SDS011;41218;55.700;38.270;2023-12-20T15:49:31;5.78;;;2.50;;
55346;SDS011;41218;55.700;38.270;2023-12-20T15:54:32;4.35;;;2.60;;
55346;SDS011;41218;55.700;38.270;2023-12-20T15:59:33;7.70;;;2.78;;
55346;SDS011;41218;55.700;38.270;2023-12-20T16:04:34;6.05;;;2.53;;
55346;SDS011;41218;55.700;38.270;2023-12-20T16:09:37;5.40;;;2.60;;
55346;SDS011;41218;55.700;38.270;2023-12-20T16:14:41;4.47;;;2.30;;
55346;SDS011;41218;55.700;38.270;2023-12-20T16:19:43;7.32;;;2.53;;
55346;SDS011;41218;55.700;38.270;2023-12-20T16:24:44;4.63;;;2.50;;
55346;SDS011;41218;55.700;38.270;2023-12-20T16:29:44;7.47;;;3.00;;
55346;SDS011;41218;55.700;38.270;2023-12-20T16:34:48;5.07;;;2.63;;
55346;SDS011;41218;55.700;38.270;2023-12-20T16:39:52;5.57;;;2.80;;
55346;SDS011;41218;55.700;38.270;2023-12-20T16:44:53;4.40;;;2.65;;
55346;SDS011;41218;55.700;38.270;2023-12-20T16:49:54;3.87;;;2.40;;
55346;SDS011;41218;55.700;38.270;2023-12-20T16:54:54;4.60;;;2.40;;
55346;SDS011;41218;55.700;38.270;2023-12-20T16:59:55;5.97;;;2.75;;
55346;SDS011;41218;55.700;38.270;2023-12-20T17:04:56;5.43;;;2.40;;
55346;SDS011;41218;55.700;38.270;2023-12-20T17:09:57;5.57;;;2.73;;
55346;SDS011;41218;55.700;38.270;2023-12-20T17:14:59;4.30;;;2.05;;
55346;SDS011;41218;55.700;38.270;2023-12-20T17:20:03;4.22;;;2.50;;
55346;SDS011;41218;55.700;38.270;2023-12-20T17:30:08;7.75;;;3.10;;
55346;SDS011;41218;55.700;38.270;2023-12-20T17:35:09;5.88;;;2.55;;
55346;SDS011;41218;55.700;38.270;2023-12-20T17:40:12;6.32;;;3.20;;
55346;SDS011;41218;55.700;38.270;2023-12-20T17:45:16;4.07;;;2.40;;
55346;SDS011;41218;55.700;38.270;2023-12-20T17:50:38;5.75;;;2.60;;
55346;SDS011;41218;55.700;38.270;2023-12-20T17:55:40;4.15;;;2.22;;
55346;SDS011;41218;55.700;38.270;2023-12-20T18:00:49;5.68;;;2.60;;
55346;SDS011;41218;55.700;38.270;2023-12-20T18:05:54;5.30;;;2.80;;
55346;SDS011;41218;55.700;38.270;2023-12-20T18:10:57;6.10;;;2.80;;
55346;SDS011;41218;55.700;38.270;2023-12-20T18:15:57;5.72;;;2.85;;
55346;SDS011;41218;55.700;38.270;2023-12-20T18:20:58;4.20;;;2.53;;
55346;SDS011;41218;55.700;38.270;2023-12-20T18:31:02;6.60;;;2.53;;
55346;SDS011;41218;55.700;38.270;2023-12-20T18:36:08;5.93;;;3.28;;
55346;SDS011;41218;55.700;38.270;2023-12-20T18:41:09;7.32;;;3.25;;
55346;SDS011;41218;55.700;38.270;2023-12-20T18:46:19;5.97;;;2.72;;
55346;SDS011;41218;55.700;38.270;2023-12-20T18:51:23;5.40;;;3.08;;
55346;SDS011;41218;55.700;38.270;2023-12-20T18:56:32;5.88;;;3.15;;
55346;SDS011;41218;55.700;38.270;2023-12-20T19:01:45;4.30;;;2.40;;
55346;SDS011;41218;55.700;38.270;2023-12-20T19:06:50;4.53;;;2.53;;
55346;SDS011;41218;55.700;38.270;2023-12-20T19:11:56;5.80;;;2.65;;
55346;SDS011;41218;55.700;38.270;2023-12-20T19:16:57;4.53;;;2.15;;
55346;SDS011;41218;55.700;38.270;2023-12-20T19:22:03;4.25;;;2.45;;
55346;SDS011;41218;55.700;38.270;2023-12-20T19:27:05;4.78;;;2.55;;
55346;SDS011;41218;55.700;38.270;2023-12-20T19:32:07;5.03;;;2.50;;
55346;SDS011;41218;55.700;38.270;2023-12-20T19:37:08;5.70;;;2.58;;
55346;SDS011;41218;55.700;38.270;2023-12-20T19:42:09;6.32;;;2.40;;
55346;SDS011;41218;55.700;38.270;2023-12-20T19:47:12;6.25;;;2.45;;
55346;SDS011;41218;55.700;38.270;2023-12-20T19:52:13;4.60;;;2.42;;
55346;SDS011;41218;55.700;38.270;2023-12-20T19:57:17;4.18;;;1.98;;
55346;SDS011;41218;55.700;38.270;2023-12-20T20:02:21;5.22;;;2.40;;
55346;SDS011;41218;55.700;38.270;2023-12-20T20:07:27;4.07;;;2.13;;
55346;SDS011;41218;55.700;38.270;2023-12-20T20:12:28;7.45;;;2.35;;
55346;SDS011;41218;55.700;38.270;2023-12-20T20:17:57;4.57;;;2.50;;
55346;SDS011;41218;55.700;38.270;2023-12-20T20:23:08;4.32;;;2.30;;
55346;SDS011;41218;55.700;38.270;2023-12-20T20:28:11;6.78;;;3.05;;
55346;SDS011;41218;55.700;38.270;2023-12-20T20:33:18;5.60;;;2.40;;
55346;SDS011;41218;55.700;38.270;2023-12-20T20:38:23;5.82;;;2.88;;
55346;SDS011;41218;55.700;38.270;2023-12-20T20:43:28;7.25;;;3.83;;
55346;SDS011;41218;55.700;38.270;2023-12-20T20:48:37;4.40;;;2.58;;
55346;SDS011;41218;55.700;38.270;2023-12-20T20:53:39;6.05;;;2.58;;
55346;SDS011;41218;55.700;38.270;2023-12-20T20:58:40;3.78;;;2.10;;
55346;SDS011;41218;55.700;38.270;2023-12-20T21:03:48;5.15;;;2.78;;
55346;SDS011;41218;55.700;38.270;2023-12-20T21:08:51;4.93;;;2.47;;
55346;SDS011;41218;55.700;38.270;2023-12-20T21:13:57;5.57;;;2.50;;
55346;SDS011;41218;55.700;38.270;2023-12-20T21:18:58;5.95;;;2.85;;
55346;SDS011;41218;55.700;38.270;2023-12-20T21:24:05;5.80;;;2.80;;
55346;SDS011;41218;55.700;38.270;2023-12-20T21:29:14;5.35;;;2.63;;
55346;SDS011;41218;55.700;38.270;2023-12-20T21:34:19;4.43;;;2.40;;
55346;SDS011;41218;55.700;38.270;2023-12-20T21:39:29;6.20;;;2.55;;
55346;SDS011;41218;55.700;38.270;2023-12-20T21:44:32;5.75;;;2.60;;
55346;SDS011;41218;55.700;38.270;2023-12-20T21:49:34;5.43;;;2.60;;
55346;SDS011;41218;55.700;38.270;2023-12-20T21:54:42;6.07;;;3.17;;
55346;SDS011;41218;55.700;38.270;2023-12-20T21:59:45;5.90;;;3.05;;
55346;SDS011;41218;55.700;38.270;2023-12-20T22:04:50;5.50;;;2.65;;
55346;SDS011;41218;55.700;38.270;2023-12-20T22:09:54;3.67;;;2.40;;
55346;SDS011;41218;55.700;38.270;2023-12-20T22:14:56;6.03;;;2.60;;
55346;SDS011;41218;55.700;38.270;2023-12-20T22:19:58;5.07;;;2.70;;
55346;SDS011;41218;55.700;38.270;2023-12-20T22:25:04;6.57;;;3.10;;
55346;SDS011;41218;55.700;38.270;2023-12-20T22:30:06;5.95;;;2.85;;
55346;SDS011;41218;55.700;38.270;2023-12-20T22:35:11;9.52;;;3.80;;
55346;SDS011;41218;55.700;38.270;2023-12-20T22:40:16;13.23;;;5.03;;
55346;SDS011;41218;55.700;38.270;2023-12-20T22:45:17;16.90;;;5.57;;
55346;SDS011;41218;55.700;38.270;2023-12-20T22:50:21;11.68;;;5.32;;
55346;SDS011;41218;55.700;38.270;2023-12-20T22:55:25;12.88;;;5.53;;
55346;SDS011;41218;55.700;38.270;2023-12-20T23:00:30;11.23;;;4.45;;
55346;SDS011;41218;55.700;38.270;2023-12-20T23:05:36;11.40;;;5.20;;
55346;SDS011;41218;55.700;38.270;2023-12-20T23:10:39;10.10;;;4.55;;
55346;SDS011;41218;55.700;38.270;2023-12-20T23:15:51;10.00;;;4.32;;
55346;SDS011;41218;55.700;38.270;2023-12-20T23:20:53;9.90;;;4.32;;
55346;SDS011;41218;55.700;38.270;2023-12-20T23:25:56;10.55;;;4.70;;
55346;SDS011;41218;55.700;38.270;2023-12-20T23:31:00;9.00;;;4.07;;
55346;SDS011;41218;55.700;38.270;2023-12-20T23:36:05;6.68;;;3.60;;
55346;SDS011;41218;55.700;38.270;2023-12-20T23:41:09;9.65;;;3.58;;
55346;SDS011;41218;55.700;38.270;2023-12-20T23:46:10;6.38;;;3.00;;
55346;SDS011;41218;55.700;38.270;2023-12-20T23:51:16;5.68;;;2.90;;
55346;SDS011;41218;55.700;38.270;2023-12-20T23:56:25;5.28;;;2.33;;
